• Join FlightAware (Why Join?)
  • Login
  • US Flag 
09:06PM EDT


 

Airport Tracker/Info


-or-


 

Live Flight TrackerFlight Track Log ✈ UAL1259 ✈ 22-Apr-2013 ✈ KBWI - KORD

Flight Track Log - Related Links

Times and Time Zones

All times are in EDT time to prevent confusion due to time zone crossing. See the UAL1259 flight status page for this flight to view local times or setup timezone preferences in your user account.

Time Position Orientation Groundspeed Altitude Reporting Facility
EDT Latitude Longitude Course Direction KTS MPH feet Rate Location/Type
09:52AM 39.1520 -76.7420 315° West 263 303 4,100  Level FlightAware
09:53AM 39.1810 -76.7800 315° West 278 320 5,600 3,300 Climbing FlightAware
09:53AM 39.1880 -76.8040 291° West 273 314 6,600 3,300 Climbing FlightAware
09:53AM 39.1940 -76.8410 282° West 277 319 7,800 3,120 Climbing FlightAware
09:54AM 39.1980 -76.8630 283° West 278 320 8,700 2,880 Climbing FlightAware
09:54AM 39.2100 -76.9170 286° West 289 333 10,000 1,800 Climbing FlightAware
09:55AM 39.2140 -76.9720 275° West 325 374 10,500 1,800 Climbing FlightAware
09:56AM 39.2140 -77.0750 270° West 352 405 12,400 2,460 Climbing FlightAware
09:56AM 39.2090 -77.1350 264° West 352 405 13,800 2,760 Climbing FlightAware
09:56AM 39.1970 -77.1630 241° Southwest 350 403 14,500 2,580 Climbing FlightAware
09:57AM 39.1790 -77.1840 222° Southwest 354 407 15,100 2,460 Climbing FlightAware
09:57AM 39.1270 -77.2290 214° Southwest 356 410 16,800 2,460 Climbing FlightAware
09:58AM 39.0710 -77.2760 213° Southwest 365 420 18,400 2,040 Climbing FlightAware
09:59AM 39.0100 -77.3370 218° Southwest 374 430 19,700 1,740 Climbing FlightAware
09:59AM 39.0040 -77.3510 241° Southwest 377 434 20,000 2,160 Climbing FlightAware
09:59AM 38.9930 -77.3930 251° West 384 442 20,600 1,800 Climbing FlightAware
10:00AM 38.9770 -77.4890 258° West 393 452 21,800 1,740 Climbing FlightAware
10:00AM 38.9590 -77.5890 257° West 402 463 23,100 1,800 Climbing FlightAware
10:01AM 38.9450 -77.6890 260° West 409 471 24,400 1,620 Climbing FlightAware
10:02AM 38.9460 -77.7890 271° West 417 480 25,400 1,500 Climbing FlightAware
10:03AM 38.9500 -77.8870 273° West 421 484 26,400 1,440 Climbing FlightAware
10:03AM 38.9530 -77.9960 272° West 427 491 27,500 1,320 Climbing FlightAware
10:04AM 38.9570 -78.1070 273° West 431 496 28,300 1,320 Climbing FlightAware
10:05AM 38.9600 -78.2090 272° West 430 495 29,300 1,740 Climbing FlightAware
10:05AM 38.9640 -78.3190 273° West 415 478 30,800 1,740 Climbing FlightAware
10:06AM 38.9670 -78.4130 272° West 412 474 31,800 1,320 Climbing FlightAware
10:07AM 38.9700 -78.5230 272° West 410 472 32,700 1,260 Climbing FlightAware
10:07AM 38.9730 -78.6240 272° West 405 466 33,600 960 Climbing FlightAware
10:08AM 38.9760 -78.7210 272° West 402 463 34,000 240 Climbing FlightAware
10:09AM 38.9780 -78.8290 271° West 401 461 34,000  Level FlightAware
10:10AM 38.9810 -78.9140 273° West 400 460 34,000  Level FlightAware
10:10AM 38.9840 -79.0310 272° West 401 461 34,000  Level FlightAware
10:11AM 38.9860 -79.1220 272° West 403 464 34,000  Level FlightAware
10:12AM 38.9880 -79.2190 272° West 405 466 34,000  Level FlightAware
10:12AM 38.9910 -79.3260 272° West 408 470 34,000  Level FlightAware
10:13AM 38.9930 -79.4340 271° West 410 472 34,000  Level FlightAware
10:14AM 38.9950 -79.5340 272° West 411 473 34,000  Level FlightAware
10:14AM 38.9970 -79.6320 272° West 412 474 34,000  Level FlightAware
10:15AM 38.9990 -79.7440 271° West 413 475 34,000  Level FlightAware
10:16AM 39.0010 -79.8560 271° West 414 476 34,000  Level FlightAware
10:17AM 39.0030 -79.9880 271° West 415 478 34,000  Level FlightAware
10:17AM 39.0050 -80.0880 272° West 414 476 34,000  Level FlightAware
10:18AM 39.0070 -80.1990 271° West 411 473 34,000  Level FlightAware
10:19AM 39.0080 -80.2980 271° West 411 473 34,000  Level FlightAware
10:20AM 39.0090 -80.4030 271° West 410 472 34,000  Level FlightAware
10:20AM 39.0140 -80.5010 274° West 413 475 34,000  Level FlightAware
10:21AM 39.0260 -80.5380 293° West 420 483 34,000  Level FlightAware
10:21AM 39.0640 -80.6270 299° West 422 486 34,000  Level FlightAware
10:22AM 39.1050 -80.7200 300° West 421 484 34,000  Level FlightAware
10:23AM 39.1500 -80.8220 300° West 422 486 34,000  Level FlightAware
10:23AM 39.1840 -80.8970 300° West 422 486 34,000  Level FlightAware
10:24AM 39.2280 -80.9950 300° West 421 484 34,000  Level FlightAware
10:25AM 39.2710 -81.0910 300° West 421 484 34,000  Level FlightAware
10:25AM 39.3100 -81.1770 300° West 422 486 34,000  Level FlightAware
10:26AM 39.3550 -81.2790 300° West 424 488 34,000  Level FlightAware
10:27AM 39.3920 -81.3640 299° West 425 489 34,000  Level FlightAware
10:28AM 39.4320 -81.4560 299° West 427 491 34,000  Level FlightAware
10:28AM 39.4750 -81.5540 300° West 429 494 34,000  Level FlightAware
10:29AM 39.5140 -81.6430 300° West 429 494 34,000  Level FlightAware
10:30AM 39.5590 -81.7450 300° West 429 494 34,000 -120 Level FlightAware
10:30AM 39.5980 -81.8350 299° West 428 493 33,900 -600 Descending FlightAware
10:31AM 39.6370 -81.9230 300° West 425 489 33,200 -660 Descending FlightAware
10:32AM 39.6770 -82.0180 299° West 424 488 33,000 -180 Descending FlightAware
10:32AM 39.7170 -82.1090 300° West 423 487 33,000  Level FlightAware
10:33AM 39.7610 -82.2120 299° West 422 486 33,000  Level FlightAware
10:34AM 39.7920 -82.2840 299° West 421 484 33,000  Level FlightAware
10:35AM 39.8360 -82.3870 299° West 419 482 33,000  Level FlightAware
10:35AM 39.8740 -82.4760 299° West 418 481 33,000  Level FlightAware
10:36AM 39.9160 -82.5740 299° West 417 480 33,000  Level FlightAware
10:37AM 39.9530 -82.6620 299° West 417 480 33,000  Level FlightAware
10:37AM 39.9950 -82.7620 299° West 417 480 33,000  Level FlightAware
10:38AM 40.0320 -82.8480 299° West 418 481 33,000 -360 Level FlightAware
10:39AM 40.0720 -82.9430 299° West 420 483 32,500 -720 Descending FlightAware
10:39AM 40.1110 -83.0370 299° West 421 484 32,000 -360 Descending FlightAware
10:40AM 40.1530 -83.1370 299° West 419 482 32,000  Level FlightAware
10:41AM 40.1910 -83.2290 298° West 417 480 32,000  Level FlightAware
10:42AM 40.2270 -83.3150 299° West 417 480 32,000  Level FlightAware
10:42AM 40.2630 -83.4030 298° West 417 480 32,000  Level FlightAware
10:43AM 40.3050 -83.5040 299° West 415 478 32,000  Level FlightAware
10:44AM 40.3410 -83.5930 298° West 415 478 32,000  Level FlightAware
10:44AM 40.3830 -83.6940 299° West 413 475 32,000  Level FlightAware
10:45AM 40.4170 -83.7790 298° West 413 475 32,000  Level FlightAware
10:46AM 40.4540 -83.8680 299° West 413 475 32,000  Level FlightAware
10:46AM 40.4950 -83.9690 298° West 413 475 32,000  Level FlightAware
10:47AM 40.5310 -84.0580 298° West 412 474 32,000  Level FlightAware
10:48AM 40.5700 -84.1550 298° West 412 474 32,000  Level FlightAware
10:49AM 40.6050 -84.2420 298° West 412 474 32,000  Level FlightAware
10:49AM 40.6470 -84.3470 298° West 411 473 32,000  Level FlightAware
10:50AM 40.6820 -84.4350 298° West 412 474 32,000  Level FlightAware
10:51AM 40.7170 -84.5220 298° West 412 474 32,000  Level FlightAware
10:51AM 40.7560 -84.6200 298° West 413 475 32,000  Level FlightAware
10:52AM 40.7890 -84.7050 297° West 412 474 32,000  Level FlightAware
10:53AM 40.8330 -84.8110 299° West 414 476 32,000  Level FlightAware
10:53AM 40.8690 -84.8950 300° West 413 475 32,000  Level FlightAware
10:54AM 40.9070 -84.9830 300° West 414 476 32,000  Level FlightAware
10:55AM 40.9490 -85.0850 299° West 412 474 32,000  Level FlightAware
10:56AM 40.9860 -85.1730 299° West 412 474 32,000  Level FlightAware
10:56AM 41.0220 -85.2580 299° West 412 474 32,000  Level FlightAware
10:57AM 41.0630 -85.3570 299° West 411 473 32,000 -240 Level FlightAware
10:58AM 41.0970 -85.4390 299° West 409 471 31,700 -1,500 Descending FlightAware
10:58AM 41.1420 -85.5470 299° West 402 463 29,900 -2,280 Descending FlightAware
10:59AM 41.1760 -85.6310 298° West 396 456 28,500 -2,100 Descending FlightAware
11:00AM 41.2130 -85.7190 299° West 394 453 27,100 -2,100 Descending FlightAware
11:00AM 41.2510 -85.8110 299° West 393 452 25,600 -1,500 Descending FlightAware
11:01AM 41.2790 -85.9010 293° West 385 443 25,000 -480 Descending FlightAware
11:02AM 41.3030 -86.0000 288° West 386 444 25,000  Level FlightAware
11:03AM 41.3220 -86.0850 287° West 387 445 25,000  Level FlightAware
11:03AM 41.3410 -86.1660 287° West 388 447 25,000  Level FlightAware
11:04AM 41.3680 -86.2840 287° West 390 449 25,000 -180 Level FlightAware
11:05AM 41.3860 -86.3640 287° West 387 445 24,800 -1,320 Descending FlightAware
11:05AM 41.4120 -86.4790 287° West 375 432 23,200 -1,980 Descending FlightAware
11:06AM 41.4310 -86.5660 286° West 367 422 21,900 -1,860 Descending FlightAware
11:07AM 41.4530 -86.6620 287° West 357 411 20,600 -1,800 Descending FlightAware
11:07AM 41.4720 -86.7450 287° West 357 411 19,400 -1,860 Descending FlightAware
11:08AM 41.4880 -86.8200 286° West 358 412 18,300 -1,980 Descending FlightAware
11:09AM 41.5130 -86.9310 287° West 360 414 16,600 -2,040 Descending FlightAware
11:10AM 41.5310 -87.0110 287° West 356 410 15,300 -1,980 Descending FlightAware
11:10AM 41.5510 -87.1030 286° West 350 403 13,800 -1,980 Descending FlightAware
11:11AM 41.5680 -87.1820 286° West 345 397 12,500 -1,500 Descending FlightAware
11:12AM 41.5990 -87.2720 295° West 330 380 11,700 -1,020 Descending FlightAware
11:12AM 41.6370 -87.3350 309° West 329 379 11,100 -1,380 Descending FlightAware
11:13AM 41.6790 -87.4040 309° West 328 377 9,800 -1,200 Descending FlightAware
11:14AM 41.7040 -87.4450 309° West 320 368 9,700 -180 Descending FlightAware
11:14AM 41.7170 -87.4660 310° West 320 368 9,700  Level FlightAware
11:14AM 41.7450 -87.5130 309° West 318 366 9,700  Level FlightAware
11:15AM 41.7680 -87.5510 309° West 310 357 9,700  Level FlightAware
11:15AM 41.7940 -87.5950 308° West 290 334 9,700  Level FlightAware
11:16AM 41.8100 -87.6330 299° West 288 331 9,700  Level FlightAware
11:16AM 41.8300 -87.6820 299° West 286 329 9,700  Level FlightAware
11:17AM 41.8500 -87.7290 300° West 284 327 9,700 -600 Level FlightAware
11:17AM 41.8620 -87.7680 292° West 284 327 9,200 -1,440 Descending FlightAware
11:18AM 41.8750 -87.8180 289° West 286 329 8,400 -1,440 Descending FlightAware
11:18AM 41.8880 -87.8650 290° West 284 327 7,800 -780 Descending FlightAware
11:18AM 41.8990 -87.9100 288° West 280 322 7,700 -120 Descending FlightAware
11:19AM 41.9120 -87.9600 289° West 280 322 7,700  Level FlightAware
11:19AM 41.9230 -87.9990 291° West 280 322 7,700  Level FlightAware
11:20AM 41.9330 -88.0200 303° West 282 325 7,700  Level FlightAware
11:20AM 41.9640 -88.0570 318° Northwest 285 328 7,700 -300 Level FlightAware
11:20AM 41.9780 -88.0730 320° Northwest 285 328 7,500 -1,380 Descending FlightAware
11:21AM 42.0040 -88.1040 318° Northwest 286 329 6,800 -1,320 Descending FlightAware
11:21AM 42.0320 -88.1360 320° Northwest 280 322 6,300 -1,080 Descending FlightAware
11:22AM 42.0470 -88.1550 317° Northwest 277 319 6,000 -1,080 Descending FlightAware
11:22AM 42.0770 -88.1730 336° Northwest 265 305 5,600 -1,200 Descending FlightAware
11:22AM 42.1020 -88.1580 24° Northeast 250 288 5,000 -1,500 Descending FlightAware
11:23AM 42.1150 -88.1360 51° Northeast 236 272 4,500 -1,800 Descending FlightAware
11:23AM 42.1180 -88.1220 74° East 230 265 4,100 -1,800 Descending FlightAware
11:23AM 42.1080 -88.0830 109° East 209 241 3,300 -1,320 Descending FlightAware
11:24AM 42.0980 -88.0550 116° Southeast 189 217 2,900 -900 Descending FlightAware
11:24AM 42.0790 -88.0330 139° Southeast 183 211 2,500 -840 Descending FlightAware
11:25AM 42.0590 -88.0110 141° Southeast 177 204 2,100 -780 Descending FlightAware
11:25AM 42.0450 -87.9940 138° Southeast 161 185 1,800 -900 Descending FlightAware
11:26AM 42.0270 -87.9750 142° Southeast 150 173 1,300 -900 Descending FlightAware
11:26AM 42.0150 -87.9610 139° Southeast 150 173 1,000 -780 Descending FlightAware
11:27AM 41.9990 -87.9430 140° Southeast 150 173 600 -840 Descending FlightAware